Terminal Aerodrome Forecast
Issued by NWS Brownsville, TX

Home | Current Version | Previous Version | Text Only | Print | Product List | Glossary On
Versions: 1 2 3 4 5 6 7 8 9 10 11 12 13 14 15 16
470
FTUS44 KBRO 271123
TAFHRL
TAF
KHRL 271123Z 2712/2812 15008KT P6SM FEW015
     FM271400 16012KT P6SM SCT025
     FM271600 15017G25KT P6SM SCT050
     FM280000 15012KT P6SM SCT025=

USA.gov is the U.S. government's official web portal to all federal, state and local government web resources and services.